createdAt,value
2019-05-14T00:00:03.668Z,103471.73
2019-05-14T00:01:06.255Z,103469.11
2019-05-14T00:02:08.482Z,103469.48
2019-05-14T00:03:11.344Z,103476.02
2019-05-14T00:04:13.630Z,103469.48
2019-05-14T00:05:16.244Z,103470.80
2019-05-14T00:06:18.449Z,103471.73
2019-05-14T00:07:22.365Z,103471.36
2019-05-14T00:08:24.751Z,103466.87
2019-05-14T00:09:27.331Z,103473.41
2019-05-14T00:10:31.738Z,103473.04
2019-05-14T00:11:33.800Z,103473.04
2019-05-14T00:12:36.011Z,103474.15
2019-05-14T00:13:38.600Z,103469.86
2019-05-14T00:14:43.549Z,103469.86
2019-05-14T00:15:45.063Z,103473.78
2019-05-14T00:16:47.258Z,103471.16
2019-05-14T00:17:52.046Z,103471.16
2019-05-14T00:18:53.694Z,103474.15
2019-05-14T00:20:06.458Z,103474.52
2019-05-14T00:21:01.986Z,103479.95
2019-05-14T00:22:04.391Z,103474.52
2019-05-14T00:23:06.583Z,103479.38
2019-05-14T00:24:11.301Z,103474.15
2019-05-14T00:25:13.035Z,103479.01
2019-05-14T00:26:15.675Z,103473.58
2019-05-14T00:27:17.883Z,103470.59
2019-05-14T00:28:21.103Z,103468.92
2019-05-14T00:29:23.483Z,103471.91
2019-05-14T00:30:26.064Z,103475.83
2019-05-14T00:31:28.288Z,103474.15
2019-05-14T00:32:31.756Z,103471.91
2019-05-14T00:33:34.066Z,103470.40
2019-05-14T00:34:36.653Z,103470.59
2019-05-14T00:35:38.851Z,103467.05
2019-05-14T00:36:41.907Z,103467.41
2019-05-14T00:37:44.166Z,103466.11
2019-05-14T00:38:46.748Z,103470.97
2019-05-14T00:39:48.964Z,103468.72
2019-05-14T00:40:51.576Z,103459.20
2019-05-14T00:41:53.766Z,103463.86
2019-05-14T00:42:56.354Z,103459.94
2019-05-14T00:43:58.559Z,103463.48
2019-05-14T00:45:01.325Z,103471.34
2019-05-14T00:46:03.537Z,103470.03
2019-05-14T00:47:06.125Z,103468.16
2019-05-14T00:48:08.334Z,103469.83
2019-05-14T00:49:11.866Z,103474.89
2019-05-14T00:50:14.204Z,103473.02
2019-05-14T00:51:16.791Z,103475.62
2019-05-14T00:52:18.996Z,103472.64
2019-05-14T00:53:21.584Z,103472.45
2019-05-14T00:54:23.774Z,103480.86
2019-05-14T00:55:26.354Z,103477.67
2019-05-14T00:56:28.557Z,103480.29
2019-05-14T00:57:31.640Z,103479.69
2019-05-14T00:58:33.956Z,103479.31
2019-05-14T00:59:36.553Z,103481.93
2019-05-14T01:00:38.779Z,103478.01
2019-05-14T01:01:42.565Z,103477.07
2019-05-14T01:02:44.981Z,103480.63
2019-05-14T01:03:47.568Z,103478.01
2019-05-14T01:04:51.600Z,103473.14
2019-05-14T01:05:54.020Z,103481.23
2019-05-14T01:06:56.229Z,103477.07
2019-05-14T01:07:58.834Z,103474.45
2019-05-14T01:09:01.506Z,103475.20
2019-05-14T01:10:04.228Z,103474.09
2019-05-14T01:11:06.456Z,103476.13
2019-05-14T01:12:09.015Z,103476.13
2019-05-14T01:13:11.284Z,103478.38
2019-05-14T01:14:13.814Z,103478.01
2019-05-14T01:15:16.026Z,103472.21
2019-05-14T01:16:18.611Z,103476.13
2019-05-14T01:17:22.511Z,103474.25
2019-05-14T01:18:25.146Z,103474.45
2019-05-14T01:19:27.355Z,103475.56
2019-05-14T01:20:31.963Z,103471.84
2019-05-14T01:21:33.793Z,103475.20
2019-05-14T01:22:36.368Z,103471.64
2019-05-14T01:23:38.590Z,103473.52
2019-05-14T01:24:41.742Z,103465.11
2019-05-14T01:25:44.139Z,103462.48
2019-05-14T01:26:46.719Z,103468.66
2019-05-14T01:27:48.919Z,103464.73
2019-05-14T01:28:51.566Z,103465.67
2019-05-14T01:29:53.843Z,103468.28
2019-05-14T01:30:56.410Z,103460.81
2019-05-14T01:31:58.614Z,103462.12
2019-05-14T01:33:01.753Z,103466.98
2019-05-14T01:34:04.236Z,103463.80
2019-05-14T01:35:06.764Z,103467.72
2019-05-14T01:36:08.973Z,103468.09
2019-05-14T01:37:12.056Z,103471.08
2019-05-14T01:38:14.360Z,103464.53
2019-05-14T01:39:16.964Z,103472.95
2019-05-14T01:40:19.153Z,103474.06
2019-05-14T01:41:22.359Z,103472.38
2019-05-14T01:42:24.743Z,103473.69
2019-05-14T01:43:27.311Z,103470.14
2019-05-14T01:44:31.725Z,103467.15
2019-05-14T01:45:33.794Z,103475.00
2019-05-14T01:46:36.258Z,103470.50
2019-05-14T01:47:41.251Z,103472.38
2019-05-14T01:48:42.673Z,103476.67
2019-05-14T01:49:45.273Z,103474.25
2019-05-14T01:50:47.478Z,103467.89
2019-05-14T01:51:51.190Z,103470.14
2019-05-14T01:52:53.476Z,103472.75
2019-05-14T01:53:56.046Z,103469.20
2019-05-14T01:54:58.286Z,103470.14
2019-05-14T01:56:01.609Z,103468.83
2019-05-14T01:57:04.096Z,103462.66
2019-05-14T01:58:06.639Z,103462.66
2019-05-14T01:59:08.847Z,103463.97
2019-05-14T02:00:11.559Z,103455.19
2019-05-14T02:01:13.819Z,103457.80
2019-05-14T02:02:16.395Z,103458.53
2019-05-14T02:03:18.585Z,103453.87
2019-05-14T02:04:22.075Z,103460.41
2019-05-14T02:05:24.515Z,103458.73
2019-05-14T02:06:27.084Z,103454.24
2019-05-14T02:07:31.301Z,103459.11
2019-05-14T02:08:33.505Z,103454.24
2019-05-14T02:09:35.702Z,103455.92
2019-05-14T02:10:38.295Z,103457.59
2019-05-14T02:11:41.592Z,103458.53
2019-05-14T02:12:44.391Z,103461.16
2019-05-14T02:13:48.418Z,103458.53
2019-05-14T02:14:51.262Z,103459.48
2019-05-14T02:15:53.643Z,103461.16
2019-05-14T02:16:56.237Z,103459.84
2019-05-14T02:17:58.531Z,103459.48
2019-05-14T02:19:01.500Z,103462.09
2019-05-14T02:20:03.825Z,103466.38
2019-05-14T02:21:07.810Z,103465.64
2019-05-14T02:22:11.277Z,103469.00
2019-05-14T02:23:14.007Z,103466.75
2019-05-14T02:24:16.217Z,103460.22
2019-05-14T02:25:18.806Z,103464.14
2019-05-14T02:26:22.071Z,103459.28
2019-05-14T02:27:24.772Z,103463.40
2019-05-14T02:28:26.974Z,103458.91
2019-05-14T02:29:31.821Z,103456.29
2019-05-14T02:30:48.280Z,103457.59
2019-05-14T02:31:39.339Z,103457.97
2019-05-14T02:32:41.666Z,103455.72
2019-05-14T02:33:44.228Z,103459.64
2019-05-14T02:34:49.726Z,103461.89
2019-05-14T02:35:50.694Z,103463.56
2019-05-14T02:36:52.907Z,103463.94
2019-05-14T02:37:55.494Z,103466.19
2019-05-14T02:39:00.393Z,103461.89
2019-05-14T02:40:01.975Z,103462.63
2019-05-14T02:41:04.227Z,103463.94
2019-05-14T02:42:09.417Z,103462.63
2019-05-14T02:43:10.659Z,103458.70
2019-05-14T02:44:13.243Z,103463.94
2019-05-14T02:45:15.469Z,103464.31
2019-05-14T02:46:21.731Z,103462.63
2019-05-14T02:47:21.888Z,103462.63
2019-05-14T02:48:24.473Z,103465.98
2019-05-14T02:49:29.686Z,103458.70
2019-05-14T02:50:30.981Z,103459.81
2019-05-14T02:51:33.178Z,103459.45
2019-05-14T02:52:35.784Z,103463.73
2019-05-14T02:53:39.120Z,103465.05
2019-05-14T02:54:41.878Z,103458.88
2019-05-14T02:55:44.116Z,103460.75
2019-05-14T02:56:49.375Z,103463.37
2019-05-14T02:57:50.759Z,103464.67
2019-05-14T02:58:53.334Z,103459.45
2019-05-14T02:59:55.555Z,103456.83
2019-05-14T03:01:00.432Z,103456.27
2019-05-14T03:02:02.006Z,103455.89
2019-05-14T03:03:04.600Z,103456.83
2019-05-14T03:04:09.084Z,103461.13
2019-05-14T03:05:11.000Z,103455.89
2019-05-14T03:06:13.253Z,103457.94
2019-05-14T03:07:19.146Z,103462.80
2019-05-14T03:08:20.109Z,103464.11
2019-05-14T03:09:22.894Z,103468.59
2019-05-14T03:10:25.107Z,103468.03
2019-05-14T03:11:29.680Z,103471.02
2019-05-14T03:12:31.576Z,103474.20
2019-05-14T03:13:34.142Z,103470.28
2019-05-14T03:14:39.268Z,103470.65
2019-05-14T03:15:40.569Z,103472.33
2019-05-14T03:16:42.855Z,103466.72
2019-05-14T03:17:45.363Z,103462.60
2019-05-14T03:18:50.141Z,103464.11
2019-05-14T03:19:51.795Z,103462.60
2019-05-14T03:20:54.083Z,103467.27
2019-05-14T03:21:59.965Z,103464.11
2019-05-14T03:23:08.029Z,103462.97
2019-05-14T03:24:04.813Z,103462.97
2019-05-14T03:25:09.881Z,103466.52
2019-05-14T03:26:11.268Z,103474.37
2019-05-14T03:27:13.461Z,103466.52
2019-05-14T03:28:19.568Z,103465.22
2019-05-14T03:29:19.958Z,103461.66
2019-05-14T03:30:23.404Z,103467.46
2019-05-14T03:31:25.979Z,103467.46
2019-05-14T03:32:33.058Z,103470.08
2019-05-14T03:33:34.045Z,103465.22
2019-05-14T03:34:42.140Z,103465.22
2019-05-14T03:35:49.037Z,103457.74
2019-05-14T03:36:44.793Z,103454.52
2019-05-14T03:37:49.592Z,103464.28
2019-05-14T03:38:51.227Z,103456.80
2019-05-14T03:39:53.447Z,103454.19
2019-05-14T03:40:56.031Z,103453.59
2019-05-14T03:41:59.013Z,103455.83
2019-05-14T03:43:01.872Z,103452.52
2019-05-14T03:44:04.069Z,103454.52
2019-05-14T03:45:08.578Z,103458.68
2019-05-14T03:46:10.528Z,103455.12
2019-05-14T03:47:13.095Z,103460.36
2019-05-14T03:48:15.335Z,103455.83
2019-05-14T03:49:19.837Z,103456.80
2019-05-14T03:50:21.869Z,103448.72
2019-05-14T03:51:24.436Z,103459.42
2019-05-14T03:52:29.284Z,103451.20
2019-05-14T03:53:30.892Z,103455.12
2019-05-14T03:54:33.095Z,103451.91
2019-05-14T03:55:35.675Z,103455.50
2019-05-14T03:56:39.387Z,103449.73
2019-05-14T03:57:42.294Z,103448.42
2019-05-14T03:58:44.541Z,103443.39
2019-05-14T03:59:49.970Z,103441.71
2019-05-14T04:00:51.263Z,103444.89
2019-05-14T04:01:53.869Z,103439.30
2019-05-14T04:02:56.065Z,103439.09
2019-05-14T04:03:59.443Z,103434.44
2019-05-14T04:05:01.766Z,103431.25
2019-05-14T04:06:04.369Z,103433.86
2019-05-14T04:07:09.676Z,103431.62
2019-05-14T04:08:10.784Z,103436.85
2019-05-14T04:09:13.022Z,103431.62
2019-05-14T04:10:15.604Z,103435.91
2019-05-14T04:11:20.159Z,103436.85
2019-05-14T04:12:22.103Z,103436.48
2019-05-14T04:13:24.293Z,103438.89
2019-05-14T04:14:29.224Z,103441.05
2019-05-14T04:15:30.770Z,103442.94
2019-05-14T04:16:33.454Z,103446.73
2019-05-14T04:17:40.991Z,103444.92
2019-05-14T04:18:40.895Z,103449.08
2019-05-14T04:19:43.083Z,103446.86
2019-05-14T04:20:45.694Z,103445.62
2019-05-14T04:21:49.025Z,103450.11
2019-05-14T04:22:51.856Z,103446.95
2019-05-14T04:23:54.123Z,103443.41
2019-05-14T04:24:59.421Z,103448.09
2019-05-14T04:26:01.086Z,103449.77
2019-05-14T04:27:11.501Z,103447.72
2019-05-14T04:28:09.853Z,103436.89
2019-05-14T04:29:11.767Z,103440.81
2019-05-14T04:30:13.967Z,103441.42
2019-05-14T04:31:19.128Z,103434.52
2019-05-14T04:32:20.474Z,103425.12
2019-05-14T04:33:23.179Z,103421.58
2019-05-14T04:34:25.386Z,103419.53
2019-05-14T04:35:29.637Z,103418.22
2019-05-14T04:36:31.844Z,103420.84
2019-05-14T04:37:34.420Z,103419.20
2019-05-14T04:38:40.473Z,103415.61
2019-05-14T04:39:40.845Z,103414.30
2019-05-14T04:40:43.144Z,103416.21
2019-05-14T04:41:45.712Z,103414.91
2019-05-14T04:42:50.351Z,103417.89
2019-05-14T04:43:52.149Z,103412.66
2019-05-14T04:44:54.349Z,103419.77
2019-05-14T04:45:59.131Z,103421.44
2019-05-14T04:47:21.686Z,103414.30
2019-05-14T04:48:26.401Z,103420.84
2019-05-14T04:49:09.836Z,103423.12
2019-05-14T04:50:12.575Z,103422.14
2019-05-14T04:51:14.779Z,103420.50
2019-05-14T04:52:20.365Z,103423.45
2019-05-14T04:53:21.205Z,103421.44
2019-05-14T04:54:23.777Z,103418.83
2019-05-14T04:55:29.447Z,103414.67
2019-05-14T04:56:30.578Z,103416.58
2019-05-14T04:57:32.836Z,103417.52
2019-05-14T04:58:35.399Z,103419.77
2019-05-14T04:59:39.667Z,103421.81
2019-05-14T05:00:44.552Z,103413.97
2019-05-14T05:01:49.348Z,103421.44
2019-05-14T05:02:50.981Z,103430.22
2019-05-14T05:03:53.213Z,103422.01
2019-05-14T05:04:55.795Z,103424.05
2019-05-14T05:05:58.902Z,103424.99
2019-05-14T05:07:01.761Z,103417.89
2019-05-14T05:08:03.887Z,103418.45
2019-05-14T05:09:09.150Z,103421.44
2019-05-14T05:10:10.529Z,103418.09
2019-05-14T05:11:13.212Z,103424.99
2019-05-14T05:12:15.412Z,103423.31
2019-05-14T05:13:18.557Z,103426.67
2019-05-14T05:14:23.741Z,103429.28
2019-05-14T05:15:25.044Z,103425.93
2019-05-14T05:16:29.619Z,103436.76
2019-05-14T05:17:44.198Z,103437.70
2019-05-14T05:18:35.357Z,103436.39
2019-05-14T05:19:39.839Z,103435.08
2019-05-14T05:20:41.794Z,103438.06
2019-05-14T05:21:44.365Z,103441.62
2019-05-14T05:22:48.508Z,103444.61
2019-05-14T05:23:50.794Z,103449.46
2019-05-14T05:24:52.974Z,103439.74
2019-05-14T05:25:55.487Z,103441.25
2019-05-14T05:26:58.499Z,103442.92
2019-05-14T05:28:01.359Z,103451.34
2019-05-14T05:29:06.940Z,103449.46
2019-05-14T05:30:08.446Z,103449.46
2019-05-14T05:31:10.829Z,103453.38
2019-05-14T05:32:13.431Z,103456.00
2019-05-14T05:33:15.668Z,103455.27
2019-05-14T05:34:19.188Z,103453.02
2019-05-14T05:35:21.625Z,103458.25
2019-05-14T05:36:24.177Z,103461.06
2019-05-14T05:37:26.401Z,103454.33
2019-05-14T05:38:29.480Z,103461.06
2019-05-14T05:39:31.823Z,103455.27
2019-05-14T05:40:34.393Z,103458.25
2019-05-14T05:41:38.459Z,103458.11
2019-05-14T05:42:40.827Z,103461.80
2019-05-14T05:43:43.055Z,103457.14
2019-05-14T05:44:48.075Z,103459.19
2019-05-14T05:45:49.487Z,103460.13
2019-05-14T05:46:52.055Z,103461.80
2019-05-14T05:47:58.132Z,103460.49
2019-05-14T05:48:58.874Z,103464.41
2019-05-14T05:50:01.128Z,103467.97
2019-05-14T05:51:03.714Z,103468.57
2019-05-14T05:52:08.338Z,103468.57
2019-05-14T05:53:10.128Z,103463.11
2019-05-14T05:54:12.357Z,103464.05
2019-05-14T05:55:14.950Z,103468.91
2019-05-14T05:56:18.740Z,103471.52
2019-05-14T05:57:21.372Z,103469.64
2019-05-14T05:58:23.570Z,103467.97
2019-05-14T05:59:26.174Z,103467.59
2019-05-14T06:00:29.840Z,103463.11
2019-05-14T06:01:42.934Z,103467.59
2019-05-14T06:02:36.477Z,103467.03
2019-05-14T06:03:39.487Z,103468.57
2019-05-14T06:04:41.787Z,103472.26
2019-05-14T06:05:44.388Z,103466.66
2019-05-14T06:06:48.232Z,103475.31
2019-05-14T06:07:50.988Z,103471.19
2019-05-14T06:08:53.216Z,103469.52
2019-05-14T06:09:55.783Z,103478.66
2019-05-14T06:10:59.126Z,103477.72
2019-05-14T06:12:01.968Z,103476.41
2019-05-14T06:13:04.193Z,103477.36
2019-05-14T06:14:08.300Z,103479.97
2019-05-14T06:15:13.935Z,103488.38
2019-05-14T06:16:15.162Z,103474.00
2019-05-14T06:17:19.189Z,103474.00
2019-05-14T06:18:22.205Z,103469.34
2019-05-14T06:19:24.538Z,103470.08
2019-05-14T06:20:28.202Z,103468.41
2019-05-14T06:21:30.540Z,103468.77
2019-05-14T06:22:33.146Z,103469.70
2019-05-14T06:23:35.350Z,103466.16
2019-05-14T06:24:39.044Z,103470.28
2019-05-14T06:25:41.438Z,103460.19
2019-05-14T06:26:44.050Z,103455.70
2019-05-14T06:27:48.424Z,103458.51
2019-05-14T06:28:50.712Z,103454.22
2019-05-14T06:29:54.460Z,103450.30
2019-05-14T06:30:58.989Z,103445.06
2019-05-14T06:32:01.078Z,103439.47
2019-05-14T06:33:03.652Z,103439.09
2019-05-14T06:34:05.854Z,103438.16
2019-05-14T06:35:08.956Z,103445.06
2019-05-14T06:36:14.405Z,103445.63
2019-05-14T06:37:19.188Z,103448.62
2019-05-14T06:38:21.300Z,103444.33
2019-05-14T06:39:23.865Z,103443.76
2019-05-14T06:40:28.577Z,103442.81
2019-05-14T06:41:30.291Z,103447.31
2019-05-14T06:42:32.545Z,103452.55
2019-05-14T06:43:35.122Z,103450.86
2019-05-14T06:44:38.602Z,103449.55
2019-05-14T06:45:41.356Z,103452.17
2019-05-14T06:46:43.551Z,103453.84
2019-05-14T06:47:48.328Z,103452.17
2019-05-14T06:48:49.988Z,103453.48
2019-05-14T06:49:52.578Z,103449.55
2019-05-14T06:50:54.777Z,103461.89
2019-05-14T06:51:59.231Z,103454.78
2019-05-14T06:53:01.268Z,103452.17
2019-05-14T06:54:03.835Z,103450.13
2019-05-14T06:55:08.680Z,103447.51
2019-05-14T06:56:10.278Z,103446.94
2019-05-14T06:57:12.484Z,103441.34
2019-05-14T06:58:15.080Z,103444.33
2019-05-14T06:59:18.181Z,103443.59
2019-05-14T07:00:20.991Z,103440.60
2019-05-14T07:01:23.213Z,103446.20
2019-05-14T07:02:28.333Z,103440.60
2019-05-14T07:03:29.664Z,103439.66
2019-05-14T07:04:32.242Z,103434.44
2019-05-14T07:05:34.386Z,103433.13
2019-05-14T07:06:39.176Z,103438.92
2019-05-14T07:07:40.863Z,103435.00
2019-05-14T07:08:43.462Z,103437.62
2019-05-14T07:09:45.589Z,103437.25
2019-05-14T07:10:48.691Z,103439.13
2019-05-14T07:11:51.010Z,103432.38
2019-05-14T07:12:53.607Z,103435.57
2019-05-14T07:13:57.954Z,103436.87
2019-05-14T07:15:00.028Z,103429.97
2019-05-14T07:16:02.243Z,103430.34
2019-05-14T07:17:04.905Z,103426.41
2019-05-14T07:18:08.631Z,103430.91
2019-05-14T07:19:11.401Z,103429.59
2019-05-14T07:20:13.614Z,103429.97
2019-05-14T07:21:18.507Z,103429.97
2019-05-14T07:22:20.057Z,103430.91
2019-05-14T07:23:22.620Z,103429.59
2019-05-14T07:24:24.824Z,103429.59
2019-05-14T07:25:28.654Z,103433.16
2019-05-14T07:26:31.119Z,103431.84
2019-05-14T07:27:33.710Z,103430.53
2019-05-14T07:28:36.095Z,103431.84
2019-05-14T07:29:39.063Z,103426.61
2019-05-14T07:30:41.241Z,103428.48
2019-05-14T07:31:43.822Z,103419.14
2019-05-14T07:32:48.251Z,103417.09
2019-05-14T07:33:50.323Z,103416.35
2019-05-14T07:34:52.535Z,103420.64
2019-05-14T07:35:55.116Z,103414.47
2019-05-14T07:36:58.632Z,103419.34
2019-05-14T07:38:01.503Z,103422.89
2019-05-14T07:39:05.372Z,103420.64
2019-05-14T07:40:08.586Z,103418.03
2019-05-14T07:41:10.981Z,103424.77
2019-05-14T07:42:13.643Z,103425.13
2019-05-14T07:43:15.937Z,103419.91
2019-05-14T07:44:18.519Z,103419.53
2019-05-14T07:45:20.762Z,103419.91
2019-05-14T07:46:23.341Z,103421.02
2019-05-14T07:47:25.553Z,103417.66
2019-05-14T07:48:28.729Z,103420.08
2019-05-14T07:49:31.249Z,103416.72
2019-05-14T07:50:33.854Z,103418.40
2019-05-14T07:51:36.048Z,103422.89
2019-05-14T07:52:45.422Z,103423.45
2019-05-14T07:53:42.670Z,103419.91
2019-05-14T07:54:45.355Z,103416.55
2019-05-14T07:55:49.259Z,103407.20
2019-05-14T07:56:53.010Z,103409.81
2019-05-14T07:57:55.433Z,103412.80
2019-05-14T07:58:58.562Z,103415.05
2019-05-14T08:00:01.882Z,103412.80
2019-05-14T08:01:04.484Z,103416.35
2019-05-14T08:02:09.093Z,103411.69
2019-05-14T08:03:11.010Z,103410.38
2019-05-14T08:04:13.195Z,103407.77
2019-05-14T08:05:17.943Z,103408.14
2019-05-14T08:06:19.661Z,103407.77
2019-05-14T08:07:22.245Z,103407.77
2019-05-14T08:08:24.509Z,103407.77
2019-05-14T08:09:28.261Z,103410.75
2019-05-14T08:10:30.797Z,103401.59
2019-05-14T08:11:33.397Z,103402.53
2019-05-14T08:12:35.603Z,103404.21
2019-05-14T08:13:39.064Z,103402.16
2019-05-14T08:14:57.289Z,103403.14
2019-05-14T08:15:46.032Z,103407.62
2019-05-14T08:16:48.916Z,103409.50
2019-05-14T08:17:51.627Z,103402.16
2019-05-14T08:18:53.829Z,103405.02
2019-05-14T08:19:58.270Z,103411.55
2019-05-14T08:21:00.298Z,103410.81
2019-05-14T08:22:02.869Z,103404.64
2019-05-14T08:23:05.386Z,103409.87
2019-05-14T08:24:08.902Z,103410.44
2019-05-14T08:25:11.191Z,103405.02
2019-05-14T08:26:13.843Z,103405.02
2019-05-14T08:27:16.034Z,103404.64
2019-05-14T08:28:21.135Z,103403.90
2019-05-14T08:29:22.464Z,103402.59
2019-05-14T08:30:25.053Z,103404.27
2019-05-14T08:31:29.239Z,103400.34
2019-05-14T08:32:31.497Z,103401.66
2019-05-14T08:33:33.715Z,103403.33
2019-05-14T08:34:38.727Z,103408.19
2019-05-14T08:35:40.245Z,103404.84
2019-05-14T08:36:42.841Z,103410.06
2019-05-14T08:37:45.054Z,103409.13
2019-05-14T08:38:49.934Z,103411.00
2019-05-14T08:39:51.506Z,103409.33
2019-05-14T08:40:54.103Z,103410.64
2019-05-14T08:42:03.641Z,103403.16
2019-05-14T08:43:00.625Z,103406.14
2019-05-14T08:44:02.835Z,103408.77
2019-05-14T08:45:10.611Z,103403.16
2019-05-14T08:46:09.293Z,103411.58
2019-05-14T08:47:11.885Z,103400.91
2019-05-14T08:48:14.086Z,103397.56
2019-05-14T08:49:18.451Z,103395.69
2019-05-14T08:50:20.541Z,103394.00
2019-05-14T08:51:23.130Z,103392.33
2019-05-14T08:52:25.425Z,103390.08
2019-05-14T08:53:28.877Z,103390.08
2019-05-14T08:54:31.369Z,103385.96
2019-05-14T08:55:38.205Z,103389.14
2019-05-14T08:56:39.978Z,103386.90
2019-05-14T08:57:42.636Z,103397.36
2019-05-14T08:58:44.880Z,103397.36
2019-05-14T08:59:48.666Z,103394.38
2019-05-14T09:00:51.158Z,103396.05
2019-05-14T09:02:01.742Z,103392.87
2019-05-14T09:02:59.098Z,103397.53
2019-05-14T09:04:01.854Z,103404.78
2019-05-14T09:05:04.997Z,103406.89
2019-05-14T09:06:09.217Z,103408.77
2019-05-14T09:07:11.668Z,103409.89
2019-05-14T09:08:14.240Z,103408.22
2019-05-14T09:09:18.527Z,103409.53
2019-05-14T09:10:20.704Z,103405.60
2019-05-14T09:11:25.796Z,103402.98
2019-05-14T09:12:28.078Z,103395.14
2019-05-14T09:13:30.476Z,103396.08
2019-05-14T09:14:33.052Z,103394.77
2019-05-14T09:15:35.254Z,103392.89
2019-05-14T09:16:46.173Z,103398.33
2019-05-14T09:17:41.736Z,103393.83
2019-05-14T09:18:44.303Z,103393.46
2019-05-14T09:20:00.928Z,103392.52
2019-05-14T09:20:50.766Z,103393.09
2019-05-14T09:21:53.189Z,103390.84
2019-05-14T09:22:55.770Z,103382.06
2019-05-14T09:23:58.711Z,103386.55
2019-05-14T09:25:01.480Z,103390.10
2019-05-14T09:26:03.670Z,103388.80
2019-05-14T09:27:08.233Z,103382.63
2019-05-14T09:28:10.107Z,103382.26
2019-05-14T09:29:22.074Z,103385.81
2019-05-14T09:30:18.561Z,103380.58
2019-05-14T09:31:21.287Z,103381.52
2019-05-14T09:32:23.497Z,103372.36
2019-05-14T09:33:26.076Z,103378.53
2019-05-14T09:34:29.119Z,103374.80
2019-05-14T09:35:31.778Z,103373.49
2019-05-14T09:36:34.029Z,103373.49
2019-05-14T09:37:39.300Z,103373.49
2019-05-14T09:38:42.139Z,103376.11
2019-05-14T09:39:44.709Z,103374.61
2019-05-14T09:40:48.892Z,103369.37
2019-05-14T09:41:51.152Z,103367.12
2019-05-14T09:42:53.387Z,103376.66
2019-05-14T09:43:58.557Z,103373.30
2019-05-14T09:44:59.933Z,103377.97
2019-05-14T09:46:02.608Z,103375.34
2019-05-14T09:47:04.779Z,103375.72
2019-05-14T09:48:08.876Z,103375.72
2019-05-14T09:49:11.370Z,103377.02
2019-05-14T09:50:18.542Z,103370.11
2019-05-14T09:51:18.452Z,103372.73
2019-05-14T09:52:21.416Z,103371.23
2019-05-14T09:53:23.650Z,103370.11
2019-05-14T09:54:28.492Z,103363.02
2019-05-14T09:55:30.097Z,103364.31
2019-05-14T09:56:32.667Z,103369.92
2019-05-14T09:57:34.902Z,103372.73
2019-05-14T09:58:38.692Z,103368.81
2019-05-14T09:59:41.318Z,103360.59
2019-05-14T10:00:43.938Z,103360.22
2019-05-14T10:01:46.260Z,103358.91
2019-05-14T10:02:49.478Z,103351.06
2019-05-14T10:03:51.785Z,103358.54
2019-05-14T10:04:54.482Z,103350.12
2019-05-14T10:05:58.978Z,103349.76
2019-05-14T10:07:00.883Z,103346.20
2019-05-14T10:08:03.089Z,103341.34
2019-05-14T10:09:08.343Z,103347.14
2019-05-14T10:10:09.988Z,103339.86
2019-05-14T10:11:12.598Z,103338.92
2019-05-14T10:12:15.111Z,103346.40
2019-05-14T10:13:17.680Z,103344.35
2019-05-14T10:14:19.888Z,103339.12
2019-05-14T10:15:22.471Z,103333.89
2019-05-14T10:16:24.679Z,103336.88
2019-05-14T10:17:28.956Z,103334.26
2019-05-14T10:18:31.114Z,103326.04
2019-05-14T10:19:34.088Z,103331.84
2019-05-14T10:20:42.380Z,103334.08
2019-05-14T10:21:40.801Z,103333.52
2019-05-14T10:22:43.025Z,103325.67
2019-05-14T10:23:45.887Z,103326.23
2019-05-14T10:24:48.088Z,103326.23
2019-05-14T10:25:50.675Z,103323.23
2019-05-14T10:26:53.195Z,103318.94
2019-05-14T10:27:55.779Z,103316.32
2019-05-14T10:28:59.006Z,103317.25
2019-05-14T10:30:01.798Z,103315.95
2019-05-14T10:31:04.016Z,103314.45
2019-05-14T10:32:08.690Z,103312.02
2019-05-14T10:33:15.045Z,103311.09
2019-05-14T10:34:14.691Z,103308.66
2019-05-14T10:35:19.019Z,103308.89
2019-05-14T10:36:21.139Z,103305.91
2019-05-14T10:37:23.367Z,103307.59
2019-05-14T10:38:25.977Z,103306.28
2019-05-14T10:39:29.857Z,103309.46
2019-05-14T10:40:32.400Z,103301.98
2019-05-14T10:41:34.631Z,103304.97
2019-05-14T10:42:40.000Z,103306.62
2019-05-14T10:43:41.123Z,103306.05
2019-05-14T10:44:43.947Z,103306.98
2019-05-14T10:45:48.914Z,103307.59
2019-05-14T10:46:50.479Z,103303.30
2019-05-14T10:47:52.711Z,103300.30
2019-05-14T10:48:55.347Z,103298.06
2019-05-14T10:49:58.388Z,103294.70
2019-05-14T10:51:03.639Z,103292.09
2019-05-14T10:52:04.905Z,103288.91
2019-05-14T10:53:08.996Z,103286.66
2019-05-14T10:54:22.289Z,103287.59
2019-05-14T10:55:15.729Z,103281.77
2019-05-14T10:56:19.354Z,103287.59
2019-05-14T10:57:22.219Z,103286.66
2019-05-14T10:58:24.460Z,103279.89
2019-05-14T10:59:29.401Z,103285.69
2019-05-14T11:00:30.915Z,103286.43
2019-05-14T11:01:33.479Z,103283.07
2019-05-14T11:02:35.684Z,103282.14
2019-05-14T11:03:38.855Z,103289.61
2019-05-14T11:04:41.209Z,103277.27
2019-05-14T11:05:43.811Z,103282.88
2019-05-14T11:06:46.012Z,103281.94
2019-05-14T11:07:48.601Z,103286.80
2019-05-14T11:08:50.807Z,103283.81
2019-05-14T11:09:53.383Z,103279.89
2019-05-14T11:10:55.619Z,103282.51
2019-05-14T11:11:58.427Z,103282.51
2019-05-14T11:13:00.790Z,103279.89
2019-05-14T11:14:03.366Z,103283.07
2019-05-14T11:15:05.671Z,103280.13
2019-05-14T11:16:08.686Z,103279.15
2019-05-14T11:17:11.998Z,103273.35
2019-05-14T11:18:14.647Z,103272.98
2019-05-14T11:19:18.822Z,103277.84
2019-05-14T11:20:21.093Z,103276.77
2019-05-14T11:21:26.687Z,103273.77
2019-05-14T11:22:28.906Z,103272.47
2019-05-14T11:23:31.204Z,103265.19
2019-05-14T11:24:34.914Z,103263.87
2019-05-14T11:25:38.322Z,103262.94
2019-05-14T11:26:40.998Z,103263.68
2019-05-14T11:27:43.193Z,103267.61
2019-05-14T11:28:45.768Z,103264.63
2019-05-14T11:29:49.165Z,103262.94
2019-05-14T11:30:51.932Z,103254.72
2019-05-14T11:31:54.182Z,103249.86
2019-05-14T11:32:58.435Z,103255.09
2019-05-14T11:34:00.753Z,103255.09
2019-05-14T11:35:03.357Z,103256.77
2019-05-14T11:36:05.572Z,103256.40
2019-05-14T11:37:08.622Z,103255.66
2019-05-14T11:38:27.535Z,103252.30
2019-05-14T11:39:15.168Z,103257.90
2019-05-14T11:40:18.953Z,103254.34
2019-05-14T11:41:21.711Z,103249.11
2019-05-14T11:42:23.919Z,103246.50
2019-05-14T11:43:28.675Z,103246.50
2019-05-14T11:44:30.357Z,103247.81
2019-05-14T11:45:32.972Z,103239.96
2019-05-14T11:46:47.481Z,103239.02
2019-05-14T11:47:39.432Z,103240.89
2019-05-14T11:48:41.630Z,103236.60
2019-05-14T11:49:44.190Z,103240.89
2019-05-14T11:50:48.869Z,103242.77
2019-05-14T11:52:08.738Z,103238.84
2019-05-14T11:52:54.613Z,103236.60
2019-05-14T11:53:58.739Z,103236.03
2019-05-14T11:55:00.984Z,103234.73
2019-05-14T11:56:03.576Z,103230.44
2019-05-14T11:57:11.174Z,103229.13